Portada
METAR-TAF:

METAR-TAF

Aeroports :

Araxá, Minas Gerais, Brasil

latitud: 19-33-38S, longitud: 046-57-56W, altitud: 999 m

Observació

L'informe es va fer fa 3 hores i 25 minuts, a les 22:00 UTC
Vent 6 kt del Oest/Sud-Oest
Temperatura 19°C
Humitat 64%
Pressió 1020 hPa
Visibilitat 10 km o més
sense núvols per sota de 1500 mi sense presència de cumulonimbus.

METAR: SBAX 162200Z 24006KT CAVOK 19/12 Q1020

Hora: 22:25 (01:25 UTC)


TAF: manca

Observacions i pronòstics meteorològics de més de 4000 aeroports (METAR i TAF).

Les estacions disponibles són els punts grocs i vermells al mapa.

Posi el ratolí al punt desitjat per veure el nom de l'estació.

Feu clic per veure les observacions i els pronòstics meteorològics.

Per canviar el mapa: feu clic els botons verds amb una creu de color negre per apropar; al botó verd amb un guió per allunyar la imatge; o en les fletxes verdes per a mapes adjacents.


METAR-TAF: